createdAt,value
2023-01-27T00:00:54.166Z,5.03
2023-01-27T00:03:21.665Z,6.47
2023-01-27T00:05:48.781Z,5.32
2023-01-27T00:08:16.281Z,5.13
2023-01-27T00:10:46.098Z,4.95
2023-01-27T00:13:27.091Z,5.55
2023-01-27T00:15:54.142Z,5.25
2023-01-27T00:18:21.079Z,5.47
2023-01-27T00:21:06.423Z,6.53
2023-01-27T00:23:51.657Z,6.30
2023-01-27T00:26:19.283Z,7.20
2023-01-27T00:28:47.537Z,5.40
2023-01-27T00:31:35.284Z,5.97
2023-01-27T00:34:02.267Z,5.40
2023-01-27T00:36:30.299Z,5.85
2023-01-27T00:38:57.490Z,4.38
2023-01-27T00:41:24.271Z,5.05
2023-01-27T00:43:52.908Z,5.07
2023-01-27T00:46:21.942Z,5.93
2023-01-27T00:48:48.996Z,5.35
2023-01-27T00:51:16.143Z,5.85
2023-01-27T00:53:42.731Z,5.47
2023-01-27T00:56:09.792Z,4.63
2023-01-27T00:58:36.835Z,4.78
2023-01-27T01:01:06.501Z,4.45
2023-01-27T01:03:34.940Z,4.75
2023-01-27T01:06:04.501Z,4.00
2023-01-27T01:08:33.009Z,4.45
2023-01-27T01:10:59.861Z,5.13
2023-01-27T01:13:30.041Z,4.45
2023-01-27T01:15:57.371Z,3.53
2023-01-27T01:18:24.641Z,3.90
2023-01-27T01:20:51.259Z,4.18
2023-01-27T01:23:18.110Z,5.57
2023-01-27T01:25:53.515Z,5.03
2023-01-27T01:28:20.551Z,4.75
2023-01-27T01:30:47.596Z,4.40
2023-01-27T01:33:14.398Z,4.40
2023-01-27T01:35:41.002Z,4.78
2023-01-27T01:38:07.621Z,4.03
2023-01-27T01:40:34.353Z,3.90
2023-01-27T01:43:11.479Z,3.88
2023-01-27T01:45:39.751Z,4.00
2023-01-27T01:48:11.164Z,3.92
2023-01-27T01:50:41.175Z,4.37
2023-01-27T01:53:09.738Z,4.28
2023-01-27T01:55:39.141Z,4.30
2023-01-27T01:58:08.340Z,4.70
2023-01-27T02:00:35.197Z,5.10
2023-01-27T02:03:03.638Z,4.47
2023-01-27T02:05:34.733Z,4.82
2023-01-27T02:08:09.519Z,4.45
2023-01-27T02:10:36.319Z,4.28
2023-01-27T02:13:02.949Z,5.05
2023-01-27T02:15:30.982Z,5.13
2023-01-27T02:17:59.279Z,4.72
2023-01-27T02:20:37.952Z,6.03
2023-01-27T02:23:31.426Z,6.38
2023-01-27T02:26:19.345Z,6.15
2023-01-27T02:28:52.034Z,4.82
2023-01-27T02:31:18.756Z,3.40
2023-01-27T02:33:45.392Z,3.67
2023-01-27T02:36:17.572Z,3.78
2023-01-27T02:41:36.877Z,3.90
2023-01-27T02:44:03.868Z,3.75
2023-01-27T02:46:30.770Z,3.70
2023-01-27T02:48:57.501Z,3.53
2023-01-27T02:51:24.138Z,3.42
2023-01-27T02:53:50.776Z,3.55
2023-01-27T02:56:17.475Z,3.40
2023-01-27T02:58:44.067Z,3.60
2023-01-27T03:01:10.908Z,3.65
2023-01-27T03:03:47.249Z,4.05
2023-01-27T03:06:14.731Z,4.43
2023-01-27T03:08:41.971Z,4.78
2023-01-27T03:11:10.000Z,4.90
2023-01-27T03:13:37.447Z,5.20
2023-01-27T03:16:24.913Z,5.60
2023-01-27T03:18:53.718Z,5.40
2023-01-27T03:21:20.577Z,6.63
2023-01-27T03:23:49.255Z,6.53
2023-01-27T03:26:16.418Z,8.48
2023-01-27T03:28:43.148Z,7.88
2023-01-27T03:31:20.065Z,9.45
2023-01-27T03:33:47.744Z,9.52
2023-01-27T03:36:33.824Z,8.52
2023-01-27T03:39:19.008Z,8.10
2023-01-27T03:42:04.124Z,8.63
2023-01-27T03:44:49.392Z,8.65
2023-01-27T03:47:15.978Z,9.23
2023-01-27T03:49:42.535Z,9.38
2023-01-27T03:52:09.215Z,8.35
2023-01-27T03:54:35.845Z,7.50
2023-01-27T03:57:06.227Z,7.20
2023-01-27T03:59:33.216Z,7.03
2023-01-27T04:02:20.287Z,6.60
2023-01-27T04:05:05.339Z,6.57
2023-01-27T04:07:35.416Z,5.60
2023-01-27T04:10:03.225Z,6.50
2023-01-27T04:12:29.777Z,6.70
2023-01-27T04:14:56.439Z,7.18
2023-01-27T04:17:23.092Z,6.95
2023-01-27T04:19:49.769Z,7.47
2023-01-27T04:22:16.721Z,7.60
2023-01-27T04:24:43.664Z,7.90
2023-01-27T04:27:12.669Z,7.93
2023-01-27T04:29:41.343Z,7.07
2023-01-27T04:32:12.668Z,6.47
2023-01-27T04:34:39.723Z,6.57
2023-01-27T04:37:08.821Z,7.07
2023-01-27T04:39:35.778Z,7.55
2023-01-27T04:42:02.518Z,6.70
2023-01-27T04:44:29.181Z,7.63
2023-01-27T04:46:55.847Z,6.35
2023-01-27T04:49:22.575Z,6.95
2023-01-27T04:51:49.269Z,7.00
2023-01-27T04:54:16.023Z,8.10
2023-01-27T04:56:55.624Z,6.90
2023-01-27T04:59:22.363Z,7.70
2023-01-27T05:01:49.118Z,6.97
2023-01-27T05:04:15.765Z,7.63
2023-01-27T05:06:42.405Z,6.25
2023-01-27T05:09:09.104Z,6.00
2023-01-27T05:11:35.763Z,7.65
2023-01-27T05:14:02.347Z,7.13
2023-01-27T05:16:29.003Z,6.47
2023-01-27T05:18:56.437Z,8.93
2023-01-27T05:21:28.464Z,7.97
2023-01-27T05:23:55.196Z,8.50
2023-01-27T05:26:26.896Z,9.38
2023-01-27T05:28:56.821Z,10.05
2023-01-27T05:31:28.713Z,9.65
2023-01-27T05:33:56.766Z,9.95
2023-01-27T05:36:24.957Z,10.27
2023-01-27T05:38:52.378Z,8.80
2023-01-27T05:41:19.986Z,6.35
2023-01-27T05:43:51.012Z,6.05
2023-01-27T05:46:22.199Z,6.47
2023-01-27T05:48:51.173Z,6.20
2023-01-27T05:51:19.761Z,6.22
2023-01-27T05:53:46.683Z,6.70
2023-01-27T05:56:15.841Z,7.43
2023-01-27T05:58:42.687Z,7.22
2023-01-27T06:01:16.790Z,7.35
2023-01-27T06:03:44.429Z,7.43
2023-01-27T06:06:12.667Z,7.47
2023-01-27T06:08:39.876Z,7.88
2023-01-27T06:11:07.250Z,7.15
2023-01-27T06:13:35.889Z,7.03
2023-01-27T06:16:03.941Z,5.80
2023-01-27T06:18:30.623Z,4.53
2023-01-27T06:21:01.509Z,4.90
2023-01-27T06:23:28.586Z,4.72
2023-01-27T06:25:56.250Z,6.00
2023-01-27T06:28:29.144Z,6.07
2023-01-27T06:30:57.272Z,6.40
2023-01-27T06:33:24.051Z,6.80
2023-01-27T06:35:50.802Z,4.82
2023-01-27T06:38:17.440Z,6.00
2023-01-27T06:40:44.382Z,5.80
2023-01-27T06:43:13.921Z,5.32
2023-01-27T06:45:40.781Z,5.72
2023-01-27T06:48:08.697Z,5.80
2023-01-27T06:50:36.763Z,4.75
2023-01-27T06:53:07.307Z,5.03
2023-01-27T06:55:36.066Z,4.82
2023-01-27T06:58:03.013Z,6.28
2023-01-27T07:00:29.997Z,5.78
2023-01-27T07:02:56.882Z,5.50
2023-01-27T07:05:23.759Z,5.30
2023-01-27T07:07:50.412Z,6.00
2023-01-27T07:10:17.330Z,6.20
2023-01-27T07:12:43.950Z,5.97
2023-01-27T07:15:11.444Z,5.53
2023-01-27T07:17:38.308Z,5.60
2023-01-27T07:20:06.835Z,6.30
2023-01-27T07:22:33.577Z,7.47
2023-01-27T07:25:00.221Z,7.63
2023-01-27T07:27:26.772Z,5.95
2023-01-27T07:29:54.119Z,6.75
2023-01-27T07:32:21.178Z,5.35
2023-01-27T07:34:47.879Z,4.85
2023-01-27T07:37:14.675Z,4.75
2023-01-27T07:39:41.289Z,3.38
2023-01-27T07:42:10.376Z,3.38
2023-01-27T07:44:37.061Z,4.07
2023-01-27T07:47:03.906Z,3.30
2023-01-27T07:49:30.491Z,3.22
2023-01-27T07:51:57.212Z,3.40
2023-01-27T07:54:25.370Z,3.22
2023-01-27T07:56:52.036Z,3.17
2023-01-27T07:59:18.599Z,2.45
2023-01-27T08:01:48.055Z,3.42
2023-01-27T08:04:14.869Z,2.72
2023-01-27T08:06:41.612Z,2.50
2023-01-27T08:09:08.242Z,2.50
2023-01-27T08:11:34.989Z,2.10
2023-01-27T08:14:04.233Z,2.83
2023-01-27T08:16:31.105Z,7.18
2023-01-27T08:18:57.849Z,17.75
2023-01-27T08:21:25.431Z,8.57
2023-01-27T08:23:53.790Z,3.17
2023-01-27T08:26:20.583Z,3.20
2023-01-27T08:28:47.355Z,3.08
2023-01-27T08:31:16.346Z,3.33
2023-01-27T08:33:45.106Z,3.50
2023-01-27T08:36:14.468Z,3.88
2023-01-27T08:38:42.487Z,3.80
2023-01-27T08:41:14.390Z,3.70
2023-01-27T08:43:41.307Z,3.30
2023-01-27T08:46:08.361Z,4.40
2023-01-27T08:48:35.570Z,4.18
2023-01-27T08:51:03.293Z,3.03
2023-01-27T08:53:30.686Z,3.38
2023-01-27T08:55:59.491Z,3.40
2023-01-27T08:58:26.200Z,3.00
2023-01-27T09:00:52.932Z,3.33
2023-01-27T09:03:20.068Z,3.05
2023-01-27T09:05:47.754Z,2.83
2023-01-27T09:08:15.982Z,2.78
2023-01-27T09:10:43.787Z,2.63
2023-01-27T09:13:10.596Z,2.47
2023-01-27T09:15:38.134Z,3.20
2023-01-27T09:18:06.643Z,3.40
2023-01-27T09:20:34.611Z,3.53
2023-01-27T09:23:01.327Z,4.20
2023-01-27T09:25:27.987Z,3.45
2023-01-27T09:27:59.255Z,3.92
2023-01-27T09:30:27.992Z,4.65
2023-01-27T09:33:00.161Z,4.35
2023-01-27T09:35:33.835Z,3.70
2023-01-27T09:38:00.554Z,3.58
2023-01-27T09:40:59.512Z,4.20
2023-01-27T09:43:48.061Z,4.50
2023-01-27T09:46:46.368Z,4.03
2023-01-27T09:49:22.179Z,4.70
2023-01-27T09:52:10.450Z,5.10
2023-01-27T09:54:52.274Z,5.18
2023-01-27T09:57:45.038Z,4.78
2023-01-27T10:00:20.913Z,3.90
2023-01-27T10:02:59.848Z,4.22
2023-01-27T10:05:39.226Z,3.90
2023-01-27T10:08:29.566Z,4.55
2023-01-27T10:11:02.397Z,4.13
2023-01-27T10:13:53.473Z,3.17
2023-01-27T10:16:36.095Z,3.58
2023-01-27T10:19:10.629Z,4.20
2023-01-27T10:21:59.612Z,3.95
2023-01-27T10:24:29.282Z,4.25
2023-01-27T10:27:07.724Z,3.78
2023-01-27T10:29:43.612Z,5.07
2023-01-27T10:32:19.837Z,4.75
2023-01-27T10:35:21.232Z,4.13
2023-01-27T10:38:02.645Z,4.82
2023-01-27T10:40:41.054Z,4.60
2023-01-27T10:43:38.266Z,3.90
2023-01-27T10:46:11.230Z,4.03
2023-01-27T10:48:48.241Z,4.45
2023-01-27T10:51:37.502Z,4.03
2023-01-27T10:54:12.424Z,3.97
2023-01-27T10:56:46.546Z,4.47
2023-01-27T11:00:10.928Z,5.07
2023-01-27T11:02:49.698Z,4.80
2023-01-27T11:05:22.384Z,5.70
2023-01-27T11:08:03.828Z,5.20
2023-01-27T11:10:36.617Z,5.18
2023-01-27T11:13:05.335Z,4.78
2023-01-27T11:15:35.069Z,5.43
2023-01-27T11:18:08.676Z,4.95
2023-01-27T11:20:49.081Z,4.53
2023-01-27T11:23:18.161Z,5.30
2023-01-27T11:25:47.745Z,5.18
2023-01-27T11:28:20.408Z,6.72
2023-01-27T11:30:54.384Z,4.63
2023-01-27T11:33:37.127Z,4.53
2023-01-27T11:36:04.148Z,4.65
2023-01-27T11:38:30.754Z,4.25
2023-01-27T11:40:57.911Z,4.90
2023-01-27T11:43:26.737Z,4.97
2023-01-27T11:46:04.870Z,4.63
2023-01-27T11:48:48.848Z,4.68
2023-01-27T11:51:21.506Z,4.63
2023-01-27T11:54:26.698Z,5.35
2023-01-27T11:56:53.514Z,4.72
2023-01-27T11:59:24.529Z,4.93
2023-01-27T12:01:55.923Z,4.82
2023-01-27T12:04:45.280Z,4.60
2023-01-27T12:07:29.454Z,5.50
2023-01-27T12:09:56.118Z,5.85
2023-01-27T12:12:27.335Z,5.53
2023-01-27T12:15:00.659Z,4.55
2023-01-27T12:17:40.611Z,4.07
2023-01-27T12:20:26.481Z,4.82
2023-01-27T12:22:55.378Z,4.88
2023-01-27T12:25:27.944Z,4.82
2023-01-27T12:28:03.993Z,5.18
2023-01-27T12:30:34.536Z,5.65
2023-01-27T12:33:13.077Z,4.47
2023-01-27T12:35:39.999Z,4.38
2023-01-27T12:38:24.649Z,5.20
2023-01-27T12:41:03.891Z,4.65
2023-01-27T12:43:30.732Z,3.42
2023-01-27T12:46:03.247Z,2.92
2023-01-27T12:48:36.706Z,4.22
2023-01-27T12:51:16.028Z,3.80
2023-01-27T12:53:45.725Z,4.70
2023-01-27T12:56:17.790Z,5.35
2023-01-27T12:58:45.994Z,3.50
2023-01-27T13:01:31.383Z,3.65
2023-01-27T13:04:00.182Z,4.35
2023-01-27T13:06:49.697Z,4.80
2023-01-27T13:09:36.412Z,5.35
2023-01-27T13:12:15.633Z,4.53
2023-01-27T13:14:43.723Z,5.60
2023-01-27T13:17:35.972Z,10.45
2023-01-27T13:20:08.484Z,5.78
2023-01-27T13:22:43.773Z,6.00
2023-01-27T13:25:21.349Z,5.50
2023-01-27T13:27:50.959Z,6.53
2023-01-27T13:30:38.054Z,5.97
2023-01-27T13:33:41.233Z,5.68
2023-01-27T13:36:15.968Z,5.88
2023-01-27T13:38:49.249Z,8.23
2023-01-27T13:41:25.141Z,7.57
2023-01-27T13:44:01.600Z,8.23
2023-01-27T13:46:33.189Z,6.72
2023-01-27T13:49:29.261Z,5.68
2023-01-27T13:51:56.053Z,6.22
2023-01-27T13:54:23.915Z,5.53
2023-01-27T13:57:23.693Z,5.80
2023-01-27T14:00:24.044Z,5.57
2023-01-27T14:03:12.001Z,4.90
2023-01-27T14:06:00.167Z,4.78
2023-01-27T14:08:56.737Z,4.88
2023-01-27T14:11:35.227Z,4.95
2023-01-27T14:14:29.688Z,5.30
2023-01-27T14:17:15.214Z,4.55
2023-01-27T14:19:48.099Z,5.00
2023-01-27T14:22:43.881Z,5.22
2023-01-27T14:25:23.768Z,4.47
2023-01-27T14:28:37.601Z,4.70
2023-01-27T14:31:14.763Z,4.70
2023-01-27T14:34:18.820Z,4.35
2023-01-27T14:36:57.867Z,4.63
2023-01-27T14:40:07.581Z,4.15
2023-01-27T14:43:15.742Z,5.10
2023-01-27T14:46:03.519Z,4.82
2023-01-27T14:48:30.170Z,5.40
2023-01-27T14:50:59.709Z,5.20
2023-01-27T14:53:33.270Z,5.90
2023-01-27T14:56:02.815Z,5.72
2023-01-27T14:58:41.731Z,4.35
2023-01-27T15:01:16.963Z,6.55
2023-01-27T15:04:10.241Z,6.72
2023-01-27T15:06:49.685Z,8.02
2023-01-27T15:09:34.175Z,7.30
2023-01-27T15:12:06.740Z,6.50
2023-01-27T15:15:04.520Z,6.53
2023-01-27T15:18:04.014Z,6.40
2023-01-27T15:20:51.829Z,6.18
2023-01-27T15:23:37.056Z,6.90
2023-01-27T15:26:07.800Z,8.82
2023-01-27T15:28:40.054Z,6.53
2023-01-27T15:33:46.017Z,5.68
2023-01-27T15:36:34.418Z,5.90
2023-01-27T15:39:09.902Z,6.22
2023-01-27T15:41:52.407Z,6.03
2023-01-27T15:44:26.019Z,5.28
2023-01-27T15:46:54.823Z,5.38
2023-01-27T15:49:28.530Z,4.60
2023-01-27T15:52:09.423Z,4.85
2023-01-27T15:54:41.091Z,4.80
2023-01-27T15:57:25.315Z,4.93
2023-01-27T15:59:59.232Z,5.75
2023-01-27T16:02:31.420Z,5.53
2023-01-27T16:05:24.506Z,5.25
2023-01-27T16:07:54.993Z,4.63
2023-01-27T16:10:24.497Z,5.32
2023-01-27T16:13:11.152Z,4.45
2023-01-27T16:15:39.024Z,5.07
2023-01-27T16:18:08.497Z,5.43
2023-01-27T16:20:49.070Z,5.60
2023-01-27T16:23:49.850Z,5.57
2023-01-27T16:27:01.338Z,5.10
2023-01-27T16:29:48.418Z,5.85
2023-01-27T16:32:18.505Z,5.60
2023-01-27T16:35:02.204Z,5.30
2023-01-27T16:37:43.141Z,4.75
2023-01-27T16:40:22.185Z,5.35
2023-01-27T16:43:18.266Z,4.30
2023-01-27T16:45:51.126Z,4.72
2023-01-27T16:48:39.265Z,4.43
2023-01-27T16:51:14.550Z,8.10
2023-01-27T16:53:49.729Z,5.95
2023-01-27T16:56:21.437Z,6.15
2023-01-27T16:58:50.977Z,6.75
2023-01-27T17:01:31.119Z,4.68
2023-01-27T17:04:07.583Z,5.10
2023-01-27T17:06:37.935Z,5.40
2023-01-27T17:09:20.456Z,5.40
2023-01-27T17:14:28.481Z,6.10
2023-01-27T17:16:59.802Z,3.97
2023-01-27T17:19:37.084Z,5.10
2023-01-27T17:22:26.160Z,5.20
2023-01-27T17:24:55.022Z,4.70
2023-01-27T17:27:26.662Z,6.15
2023-01-27T17:30:00.865Z,5.53
2023-01-27T17:32:32.925Z,4.93
2023-01-27T17:35:03.316Z,6.60
2023-01-27T17:37:31.271Z,5.20
2023-01-27T17:40:00.060Z,6.07
2023-01-27T17:42:31.178Z,5.03
2023-01-27T17:45:20.372Z,5.13
2023-01-27T17:47:47.304Z,5.53
2023-01-27T17:50:23.210Z,4.97
2023-01-27T17:52:53.216Z,5.38
2023-01-27T17:55:25.562Z,5.32
2023-01-27T18:00:38.077Z,4.97
2023-01-27T18:03:25.541Z,5.10
2023-01-27T18:05:54.604Z,5.03
2023-01-27T18:08:23.557Z,4.60
2023-01-27T18:10:51.037Z,5.25
2023-01-27T18:13:20.695Z,4.57
2023-01-27T18:15:59.095Z,5.63
2023-01-27T18:18:31.419Z,5.18
2023-01-27T18:23:32.521Z,5.22
2023-01-27T18:26:10.729Z,5.60
2023-01-27T18:28:38.687Z,5.07
2023-01-27T18:31:14.652Z,4.95
2023-01-27T18:33:43.708Z,4.88
2023-01-27T18:36:34.829Z,5.63
2023-01-27T18:39:04.124Z,4.97
2023-01-27T18:41:37.671Z,4.63
2023-01-27T18:44:04.503Z,4.80
2023-01-27T18:46:31.094Z,5.80
2023-01-27T18:48:59.759Z,5.85
2023-01-27T18:51:26.436Z,6.45
2023-01-27T18:53:53.046Z,5.95
2023-01-27T18:56:19.708Z,4.82
2023-01-27T18:58:46.339Z,4.68
2023-01-27T19:01:21.728Z,4.43
2023-01-27T19:03:51.066Z,5.40
2023-01-27T19:06:18.166Z,4.28
2023-01-27T19:08:44.950Z,5.07
2023-01-27T19:11:15.995Z,3.60
2023-01-27T19:13:46.464Z,4.30
2023-01-27T19:16:16.337Z,4.70
2023-01-27T19:18:44.587Z,4.22
2023-01-27T19:21:16.596Z,4.40
2023-01-27T19:23:44.878Z,4.20
2023-01-27T19:26:17.536Z,3.65
2023-01-27T19:28:46.761Z,3.78
2023-01-27T19:31:13.536Z,3.50
2023-01-27T19:33:43.980Z,3.40
2023-01-27T19:36:34.931Z,3.47
2023-01-27T19:39:12.237Z,3.20
2023-01-27T19:41:38.853Z,2.92
2023-01-27T19:44:05.590Z,3.50
2023-01-27T19:46:34.181Z,3.05
2023-01-27T19:49:01.113Z,3.33
2023-01-27T19:51:27.852Z,3.80
2023-01-27T19:53:54.747Z,3.83
2023-01-27T19:56:23.423Z,3.70
2023-01-27T19:58:52.641Z,3.55
2023-01-27T20:01:20.573Z,3.60
2023-01-27T20:03:47.295Z,4.15
2023-01-27T20:06:28.354Z,3.95
2023-01-27T20:08:57.116Z,4.10
2023-01-27T20:11:37.068Z,3.67
2023-01-27T20:14:07.901Z,4.43
2023-01-27T20:16:34.924Z,4.88
2023-01-27T20:19:02.157Z,8.35
2023-01-27T20:21:31.500Z,6.75
2023-01-27T20:23:58.502Z,4.00
2023-01-27T20:26:25.853Z,3.97
2023-01-27T20:28:52.844Z,3.92
2023-01-27T20:31:24.284Z,3.05
2023-01-27T20:33:51.816Z,3.33
2023-01-27T20:36:22.133Z,3.42
2023-01-27T20:38:49.379Z,3.83
2023-01-27T20:41:22.536Z,3.67
2023-01-27T20:43:53.997Z,3.85
2023-01-27T20:46:21.058Z,4.50
2023-01-27T20:48:47.762Z,4.53
2023-01-27T20:51:15.857Z,4.35
2023-01-27T20:53:46.760Z,4.05
2023-01-27T20:56:15.761Z,4.45
2023-01-27T20:58:42.745Z,4.30
2023-01-27T21:01:12.048Z,4.70
2023-01-27T21:03:39.558Z,3.60
2023-01-27T21:06:07.753Z,4.05
2023-01-27T21:08:34.628Z,4.20
2023-01-27T21:11:02.670Z,4.40
2023-01-27T21:13:30.053Z,4.15
2023-01-27T21:15:57.100Z,3.75
2023-01-27T21:18:24.629Z,4.10
2023-01-27T21:20:56.320Z,5.25
2023-01-27T21:23:28.096Z,5.35
2023-01-27T21:25:55.545Z,4.90
2023-01-27T21:28:22.498Z,5.35
2023-01-27T21:30:49.179Z,4.95
2023-01-27T21:33:17.703Z,9.85
2023-01-27T21:35:44.365Z,9.48
2023-01-27T21:38:11.026Z,5.05
2023-01-27T21:40:40.251Z,4.57
2023-01-27T21:43:28.164Z,4.50
2023-01-27T21:45:59.010Z,4.32
2023-01-27T21:48:25.731Z,4.97
2023-01-27T21:50:52.597Z,4.40
2023-01-27T21:53:19.206Z,5.90
2023-01-27T21:55:45.791Z,4.90
2023-01-27T21:58:12.371Z,5.30
2023-01-27T22:00:39.183Z,4.80
2023-01-27T22:03:05.834Z,5.72
2023-01-27T22:05:35.813Z,5.85
2023-01-27T22:08:02.816Z,5.53
2023-01-27T22:10:30.302Z,5.07
2023-01-27T22:13:03.553Z,4.53
2023-01-27T22:15:30.899Z,4.80
2023-01-27T22:17:58.650Z,5.07
2023-01-27T22:20:26.031Z,5.43
2023-01-27T22:22:52.792Z,4.55
2023-01-27T22:25:19.962Z,4.88
2023-01-27T22:27:46.815Z,5.15
2023-01-27T22:30:16.654Z,5.78
2023-01-27T22:32:44.285Z,4.60
2023-01-27T22:35:14.376Z,5.25
2023-01-27T22:37:41.402Z,4.38
2023-01-27T22:40:08.838Z,4.97
2023-01-27T22:42:35.606Z,4.30
2023-01-27T22:45:02.465Z,4.97
2023-01-27T22:47:29.097Z,4.90
2023-01-27T22:49:58.424Z,5.05
2023-01-27T22:52:25.070Z,5.00
2023-01-27T22:54:51.683Z,5.13
2023-01-27T22:57:18.415Z,4.93
2023-01-27T22:59:45.084Z,4.85
2023-01-27T23:02:11.752Z,5.03
2023-01-27T23:04:38.417Z,5.03
2023-01-27T23:07:05.019Z,5.25
2023-01-27T23:09:31.654Z,5.47
2023-01-27T23:11:58.407Z,4.47
2023-01-27T23:14:24.987Z,4.45
2023-01-27T23:16:53.045Z,5.60
2023-01-27T23:19:19.936Z,4.97
2023-01-27T23:21:48.249Z,4.68
2023-01-27T23:24:15.553Z,4.75
2023-01-27T23:26:42.195Z,5.32
2023-01-27T23:29:22.968Z,4.60
2023-01-27T23:31:50.998Z,4.20
2023-01-27T23:34:17.719Z,4.93
2023-01-27T23:36:44.356Z,5.53
2023-01-27T23:39:14.255Z,4.70
2023-01-27T23:41:40.988Z,4.43
2023-01-27T23:44:11.028Z,4.80
2023-01-27T23:46:38.045Z,4.85
2023-01-27T23:49:04.798Z,4.07
2023-01-27T23:51:31.839Z,5.20
2023-01-27T23:53:58.635Z,4.43
2023-01-27T23:56:25.296Z,4.93
2023-01-27T23:58:51.962Z,5.30
